sensor_id;sensor_type;location;lat;lon;timestamp;pressure;altitude;pressure_sealevel;temperature;humidity
71791;BME280;59638;52.126;5.434;2023-05-29T00:01:59;102574.78;;;10.16;93.04
71791;BME280;59638;52.126;5.434;2023-05-29T00:04:26;102580.06;;;10.16;93.49
71791;BME280;59638;52.126;5.434;2023-05-29T00:06:52;102581.28;;;10.10;93.68
71791;BME280;59638;52.126;5.434;2023-05-29T00:09:19;102576.31;;;10.05;93.37
71791;BME280;59638;52.126;5.434;2023-05-29T00:11:45;102579.97;;;10.03;93.73
71791;BME280;59638;52.126;5.434;2023-05-29T00:14:17;102576.66;;;9.99;93.88
71791;BME280;59638;52.126;5.434;2023-05-29T00:16:46;102575.91;;;9.97;93.38
71791;BME280;59638;52.126;5.434;2023-05-29T00:19:13;102564.50;;;9.97;93.75
71791;BME280;59638;52.126;5.434;2023-05-29T00:21:40;102575.34;;;9.92;94.04
71791;BME280;59638;52.126;5.434;2023-05-29T00:24:07;102572.03;;;9.89;94.46
71791;BME280;59638;52.126;5.434;2023-05-29T00:26:33;102579.00;;;9.90;94.51
71791;BME280;59638;52.126;5.434;2023-05-29T00:29:00;102569.69;;;9.84;94.91
71791;BME280;59638;52.126;5.434;2023-05-29T00:31:26;102566.44;;;9.79;94.97
71791;BME280;59638;52.126;5.434;2023-05-29T00:33:54;102580.59;;;9.78;94.56
71791;BME280;59638;52.126;5.434;2023-05-29T00:36:21;102576.50;;;9.72;94.90
71791;BME280;59638;52.126;5.434;2023-05-29T00:38:48;102573.09;;;9.70;95.32
71791;BME280;59638;52.126;5.434;2023-05-29T00:41:15;102578.38;;;9.70;95.15
71791;BME280;59638;52.126;5.434;2023-05-29T00:43:42;102581.28;;;9.66;95.65
71791;BME280;59638;52.126;5.434;2023-05-29T00:46:09;102586.56;;;9.66;94.87
71791;BME280;59638;52.126;5.434;2023-05-29T00:48:38;102591.06;;;9.64;95.00
71791;BME280;59638;52.126;5.434;2023-05-29T00:51:08;102587.66;;;9.62;94.98
71791;BME280;59638;52.126;5.434;2023-05-29T00:53:35;102598.41;;;9.59;95.86
71791;BME280;59638;52.126;5.434;2023-05-29T00:56:02;102598.56;;;9.56;95.43
71791;BME280;59638;52.126;5.434;2023-05-29T00:58:29;102606.47;;;9.56;95.00
71791;BME280;59638;52.126;5.434;2023-05-29T01:00:55;102593.28;;;9.56;95.19
71791;BME280;59638;52.126;5.434;2023-05-29T01:03:22;102608.38;;;9.53;95.85
71791;BME280;59638;52.126;5.434;2023-05-29T01:05:50;102603.19;;;9.52;95.51
71791;BME280;59638;52.126;5.434;2023-05-29T01:08:18;102599.84;;;9.48;95.73
71791;BME280;59638;52.126;5.434;2023-05-29T01:10:45;102602.00;;;9.42;95.89
71791;BME280;59638;52.126;5.434;2023-05-29T01:13:18;102604.88;;;9.37;96.80
71791;BME280;59638;52.126;5.434;2023-05-29T01:21:27;102624.69;;;9.29;97.71
71791;BME280;59638;52.126;5.434;2023-05-29T01:27:19;102617.03;;;9.24;96.50
71791;BME280;59638;52.126;5.434;2023-05-29T01:29:48;102630.22;;;9.24;97.19
71791;BME280;59638;52.126;5.434;2023-05-29T01:32:16;102641.88;;;9.20;97.51
71791;BME280;59638;52.126;5.434;2023-05-29T01:34:42;102641.88;;;9.20;97.62
71791;BME280;59638;52.126;5.434;2023-05-29T01:37:09;102638.66;;;9.15;97.42
71791;BME280;59638;52.126;5.434;2023-05-29T01:39:36;102640.34;;;9.16;97.86
71791;BME280;59638;52.126;5.434;2023-05-29T01:42:02;102651.91;;;9.13;98.28
71791;BME280;59638;52.126;5.434;2023-05-29T01:44:29;102644.25;;;9.09;97.65
71791;BME280;59638;52.126;5.434;2023-05-29T01:46:57;102649.69;;;9.06;97.77
71791;BME280;59638;52.126;5.434;2023-05-29T01:49:25;102651.53;;;9.04;97.51
71791;BME280;59638;52.126;5.434;2023-05-29T01:51:53;102648.00;;;9.05;98.06
71791;BME280;59638;52.126;5.434;2023-05-29T01:54:20;102651.53;;;9.04;98.50
71791;BME280;59638;52.126;5.434;2023-05-29T01:56:46;102648.34;;;8.98;98.91
71791;BME280;59638;52.126;5.434;2023-05-29T01:59:14;102650.19;;;8.96;98.97
71791;BME280;59638;52.126;5.434;2023-05-29T02:01:41;102661.56;;;8.97;98.37
71791;BME280;59638;52.126;5.434;2023-05-29T02:04:07;102653.75;;;8.95;98.46
71791;BME280;59638;52.126;5.434;2023-05-29T02:06:34;102661.84;;;8.92;99.17
71791;BME280;59638;52.126;5.434;2023-05-29T02:09:00;102668.03;;;8.91;98.95
71791;BME280;59638;52.126;5.434;2023-05-29T02:11:27;102663.09;;;8.85;98.78
71791;BME280;59638;52.126;5.434;2023-05-29T02:13:53;102663.25;;;8.82;99.28
71791;BME280;59638;52.126;5.434;2023-05-29T02:16:20;102658.91;;;8.81;99.72
71791;BME280;59638;52.126;5.434;2023-05-29T02:18:47;102653.75;;;8.80;99.85
71791;BME280;59638;52.126;5.434;2023-05-29T02:21:13;102640.66;;;8.78;99.28
71791;BME280;59638;52.126;5.434;2023-05-29T02:23:40;102640.81;;;8.75;99.51
71791;BME280;59638;52.126;5.434;2023-05-29T02:26:06;102640.03;;;8.73;99.23
71791;BME280;59638;52.126;5.434;2023-05-29T02:28:33;102643.75;;;8.69;99.85
71791;BME280;59638;52.126;5.434;2023-05-29T02:30:59;102645.63;;;8.67;100.00
71791;BME280;59638;52.126;5.434;2023-05-29T02:33:26;102646.56;;;8.66;100.00
71791;BME280;59638;52.126;5.434;2023-05-29T02:35:52;102651.00;;;8.65;100.00
71791;BME280;59638;52.126;5.434;2023-05-29T02:38:18;102647.56;;;8.63;100.00
71791;BME280;59638;52.126;5.434;2023-05-29T02:40:45;102658.00;;;8.65;100.00
71791;BME280;59638;52.126;5.434;2023-05-29T02:43:13;102655.72;;;8.59;100.00
71791;BME280;59638;52.126;5.434;2023-05-29T02:45:40;102650.59;;;8.56;100.00
71791;BME280;59638;52.126;5.434;2023-05-29T02:48:06;102642.72;;;8.56;100.00
71791;BME280;59638;52.126;5.434;2023-05-29T02:50:34;102652.31;;;8.57;100.00
71791;BME280;59638;52.126;5.434;2023-05-29T02:53:00;102659.56;;;8.52;100.00
71791;BME280;59638;52.126;5.434;2023-05-29T02:55:27;102652.78;;;8.48;100.00
71791;BME280;59638;52.126;5.434;2023-05-29T02:57:53;102656.19;;;8.50;100.00
71791;BME280;59638;52.126;5.434;2023-05-29T03:00:21;102652.03;;;8.46;100.00
71791;BME280;59638;52.126;5.434;2023-05-29T03:02:48;102652.94;;;8.44;100.00
71791;BME280;59638;52.126;5.434;2023-05-29T03:05:14;102658.38;;;8.41;100.00
71791;BME280;59638;52.126;5.434;2023-05-29T03:07:42;102660.25;;;8.39;100.00
71791;BME280;59638;52.126;5.434;2023-05-29T03:10:09;102666.50;;;8.37;100.00
71791;BME280;59638;52.126;5.434;2023-05-29T03:12:36;102662.31;;;8.33;100.00
71791;BME280;59638;52.126;5.434;2023-05-29T03:15:03;102664.84;;;8.34;100.00
71791;BME280;59638;52.126;5.434;2023-05-29T03:17:30;102661.16;;;8.38;100.00
71791;BME280;59638;52.126;5.434;2023-05-29T03:19:56;102652.34;;;8.39;100.00
71791;BME280;59638;52.126;5.434;2023-05-29T03:22:23;102652.34;;;8.39;100.00
71791;BME280;59638;52.126;5.434;2023-05-29T03:24:50;102652.41;;;8.38;100.00
71791;BME280;59638;52.126;5.434;2023-05-29T03:27:16;102649.84;;;8.36;100.00
71791;BME280;59638;52.126;5.434;2023-05-29T03:29:43;102648.16;;;8.35;100.00
71791;BME280;59638;52.126;5.434;2023-05-29T03:32:09;102652.53;;;8.35;100.00
71791;BME280;59638;52.126;5.434;2023-05-29T03:34:36;102645.59;;;8.34;100.00
71791;BME280;59638;52.126;5.434;2023-05-29T03:37:02;102651.69;;;8.34;100.00
71791;BME280;59638;52.126;5.434;2023-05-29T03:39:29;102656.81;;;8.37;100.00
71791;BME280;59638;52.126;5.434;2023-05-29T03:41:55;102656.06;;;8.35;100.00
71791;BME280;59638;52.126;5.434;2023-05-29T03:44:22;102641.31;;;8.31;100.00
71791;BME280;59638;52.126;5.434;2023-05-29T03:46:49;102655.25;;;8.33;100.00
71791;BME280;59638;52.126;5.434;2023-05-29T03:49:16;102653.41;;;8.35;100.00
71791;BME280;59638;52.126;5.434;2023-05-29T03:51:42;102653.41;;;8.35;100.00
71791;BME280;59638;52.126;5.434;2023-05-29T03:54:09;102656.91;;;8.36;100.00
71791;BME280;59638;52.126;5.434;2023-05-29T03:56:36;102651.56;;;8.37;100.00
71791;BME280;59638;52.126;5.434;2023-05-29T03:59:02;102661.94;;;8.40;100.00
71791;BME280;59638;52.126;5.434;2023-05-29T04:01:29;102657.34;;;8.44;100.00
71791;BME280;59638;52.126;5.434;2023-05-29T04:03:55;102653.78;;;8.45;100.00
71791;BME280;59638;52.126;5.434;2023-05-29T04:06:22;102659.75;;;8.49;100.00
71791;BME280;59638;52.126;5.434;2023-05-29T04:08:49;102664.84;;;8.52;100.00
71791;BME280;59638;52.126;5.434;2023-05-29T04:11:16;102666.56;;;8.53;100.00
71791;BME280;59638;52.126;5.434;2023-05-29T04:13:42;102664.63;;;8.56;100.00
71791;BME280;59638;52.126;5.434;2023-05-29T04:16:09;102670.63;;;8.58;100.00
71791;BME280;59638;52.126;5.434;2023-05-29T04:18:35;102671.34;;;8.62;100.00
71791;BME280;59638;52.126;5.434;2023-05-29T04:21:02;102674.75;;;8.64;99.63
71791;BME280;59638;52.126;5.434;2023-05-29T04:23:29;102680.72;;;8.67;99.74
71791;BME280;59638;52.126;5.434;2023-05-29T04:25:55;102677.84;;;8.72;99.62
71791;BME280;59638;52.126;5.434;2023-05-29T04:28:21;102686.50;;;8.74;99.99
71791;BME280;59638;52.126;5.434;2023-05-29T04:30:49;102684.31;;;8.82;99.51
71791;BME280;59638;52.126;5.434;2023-05-29T04:33:17;102679.75;;;8.86;99.21
71791;BME280;59638;52.126;5.434;2023-05-29T04:35:43;102683.91;;;8.90;98.53
71791;BME280;59638;52.126;5.434;2023-05-29T04:38:10;102688.75;;;8.97;98.37
71791;BME280;59638;52.126;5.434;2023-05-29T04:40:36;102693.53;;;9.07;98.52
71791;BME280;59638;52.126;5.434;2023-05-29T04:43:03;102690.16;;;9.36;98.90
71791;BME280;59638;52.126;5.434;2023-05-29T04:45:31;102706.63;;;9.87;97.08
71791;BME280;59638;52.126;5.434;2023-05-29T04:47:58;102709.19;;;9.89;96.16
71791;BME280;59638;52.126;5.434;2023-05-29T04:50:25;102696.66;;;10.24;95.97
71791;BME280;59638;52.126;5.434;2023-05-29T04:52:52;102699.44;;;10.65;94.24
71791;BME280;59638;52.126;5.434;2023-05-29T04:55:18;102696.91;;;10.92;92.92
71791;BME280;59638;52.126;5.434;2023-05-29T04:57:45;102694.63;;;11.14;90.76
71791;BME280;59638;52.126;5.434;2023-05-29T05:00:12;102698.41;;;10.82;89.40
71791;BME280;59638;52.126;5.434;2023-05-29T05:02:42;102705.44;;;10.39;90.02
71791;BME280;59638;52.126;5.434;2023-05-29T05:05:09;102702.66;;;10.26;91.84
71791;BME280;59638;52.126;5.434;2023-05-29T05:07:36;102703.41;;;10.28;92.18
71791;BME280;59638;52.126;5.434;2023-05-29T05:10:03;102711.31;;;10.44;92.37
71791;BME280;59638;52.126;5.434;2023-05-29T05:12:30;102708.94;;;10.39;91.67
71791;BME280;59638;52.126;5.434;2023-05-29T05:14:57;102708.34;;;10.34;91.18
71791;BME280;59638;52.126;5.434;2023-05-29T05:17:23;102716.81;;;10.25;91.18
71791;BME280;59638;52.126;5.434;2023-05-29T05:19:50;102711.84;;;10.19;92.18
71791;BME280;59638;52.126;5.434;2023-05-29T05:22:18;102711.53;;;10.25;92.31
71791;BME280;59638;52.126;5.434;2023-05-29T05:24:45;102713.72;;;10.32;91.76
71791;BME280;59638;52.126;5.434;2023-05-29T05:27:11;102710.81;;;10.37;92.31
71791;BME280;59638;52.126;5.434;2023-05-29T05:29:38;102714.22;;;10.39;92.07
71791;BME280;59638;52.126;5.434;2023-05-29T05:32:05;102708.72;;;10.42;91.40
71791;BME280;59638;52.126;5.434;2023-05-29T05:34:31;102718.09;;;10.48;91.51
71791;BME280;59638;52.126;5.434;2023-05-29T05:36:58;102706.03;;;10.58;91.42
71791;BME280;59638;52.126;5.434;2023-05-29T05:39:24;102706.63;;;10.63;90.36
71791;BME280;59638;52.126;5.434;2023-05-29T05:41:50;102710.66;;;10.69;90.08
71791;BME280;59638;52.126;5.434;2023-05-29T05:44:17;102709.66;;;10.71;89.36
71791;BME280;59638;52.126;5.434;2023-05-29T05:46:43;102722.19;;;10.82;88.70
71791;BME280;59638;52.126;5.434;2023-05-29T05:49:11;102719.94;;;10.90;88.52
71791;BME280;59638;52.126;5.434;2023-05-29T05:51:37;102724.84;;;10.96;87.80
71791;BME280;59638;52.126;5.434;2023-05-29T05:54:04;102722.00;;;11.13;87.00
71791;BME280;59638;52.126;5.434;2023-05-29T05:56:30;102727.13;;;11.16;86.61
71791;BME280;59638;52.126;5.434;2023-05-29T05:58:56;102728.78;;;11.32;85.99
71791;BME280;59638;52.126;5.434;2023-05-29T06:01:23;102729.19;;;11.26;84.88
71791;BME280;59638;52.126;5.434;2023-05-29T06:03:49;102728.22;;;11.27;84.93
71791;BME280;59638;52.126;5.434;2023-05-29T06:06:16;102725.47;;;11.42;84.68
71791;BME280;59638;52.126;5.434;2023-05-29T06:08:44;102735.19;;;11.56;84.34
71791;BME280;59638;52.126;5.434;2023-05-29T06:11:12;102729.13;;;11.54;84.58
71791;BME280;59638;52.126;5.434;2023-05-29T06:13:38;102724.41;;;11.59;84.45
71791;BME280;59638;52.126;5.434;2023-05-29T06:16:05;102729.19;;;11.67;83.56
71791;BME280;59638;52.126;5.434;2023-05-29T06:18:31;102728.16;;;11.84;82.70
71791;BME280;59638;52.126;5.434;2023-05-29T06:20:57;102723.19;;;11.92;81.58
71791;BME280;59638;52.126;5.434;2023-05-29T06:23:24;102718.25;;;12.00;81.38
71791;BME280;59638;52.126;5.434;2023-05-29T06:25:51;102718.78;;;12.05;81.74
71791;BME280;59638;52.126;5.434;2023-05-29T06:28:18;102723.88;;;12.08;81.15
71791;BME280;59638;52.126;5.434;2023-05-29T06:30:44;102726.88;;;12.16;80.11
71791;BME280;59638;52.126;5.434;2023-05-29T06:33:12;102730.59;;;12.27;80.03
71791;BME280;59638;52.126;5.434;2023-05-29T06:35:38;102728.50;;;12.32;79.34
71791;BME280;59638;52.126;5.434;2023-05-29T06:38:05;102732.34;;;12.53;79.18
71791;BME280;59638;52.126;5.434;2023-05-29T06:40:32;102724.28;;;12.93;78.18
71791;BME280;59638;52.126;5.434;2023-05-29T06:42:58;102726.09;;;13.30;76.81
71791;BME280;59638;52.126;5.434;2023-05-29T06:45:25;102730.63;;;13.41;75.56
71791;BME280;59638;52.126;5.434;2023-05-29T06:47:51;102734.03;;;13.30;74.84
71791;BME280;59638;52.126;5.434;2023-05-29T06:50:18;102731.81;;;13.24;75.12
71791;BME280;59638;52.126;5.434;2023-05-29T06:52:44;102733.16;;;13.43;74.32
71791;BME280;59638;52.126;5.434;2023-05-29T06:55:10;102745.25;;;13.47;72.62
71791;BME280;59638;52.126;5.434;2023-05-29T06:57:37;102742.50;;;13.48;72.94
71791;BME280;59638;52.126;5.434;2023-05-29T07:00:05;102742.66;;;13.58;74.63
71791;BME280;59638;52.126;5.434;2023-05-29T07:02:32;102746.66;;;13.76;73.63
71791;BME280;59638;52.126;5.434;2023-05-29T07:04:58;102741.06;;;13.92;71.65
71791;BME280;59638;52.126;5.434;2023-05-29T07:07:25;102738.59;;;14.02;71.37
71791;BME280;59638;52.126;5.434;2023-05-29T07:09:51;102736.72;;;14.15;72.01
71791;BME280;59638;52.126;5.434;2023-05-29T07:12:22;102740.41;;;14.36;71.24
71791;BME280;59638;52.126;5.434;2023-05-29T07:14:48;102734.56;;;14.55;70.74
71791;BME280;59638;52.126;5.434;2023-05-29T07:17:15;102733.47;;;14.47;70.66
71791;BME280;59638;52.126;5.434;2023-05-29T07:19:42;102742.41;;;14.57;70.44
71791;BME280;59638;52.126;5.434;2023-05-29T07:22:08;102741.97;;;14.85;70.25
71791;BME280;59638;52.126;5.434;2023-05-29T07:24:34;102743.19;;;15.37;69.45
71791;BME280;59638;52.126;5.434;2023-05-29T07:27:01;102748.34;;;16.37;66.16
71791;BME280;59638;52.126;5.434;2023-05-29T07:29:28;102744.09;;;17.18;64.05
71791;BME280;59638;52.126;5.434;2023-05-29T07:31:54;102738.38;;;18.20;60.22
71791;BME280;59638;52.126;5.434;2023-05-29T07:34:21;102740.31;;;18.57;58.44
71791;BME280;59638;52.126;5.434;2023-05-29T07:39:26;102736.91;;;19.49;57.58
71791;BME280;59638;52.126;5.434;2023-05-29T07:41:53;102746.13;;;19.64;55.31
71791;BME280;59638;52.126;5.434;2023-05-29T07:44:19;102739.09;;;19.63;55.21
71791;BME280;59638;52.126;5.434;2023-05-29T07:46:46;102741.53;;;19.19;57.33
71791;BME280;59638;52.126;5.434;2023-05-29T07:49:13;102744.19;;;18.92;57.76
71791;BME280;59638;52.126;5.434;2023-05-29T07:51:39;102745.09;;;18.83;57.25
71791;BME280;59638;52.126;5.434;2023-05-29T07:54:06;102743.44;;;19.37;55.50
71791;BME280;59638;52.126;5.434;2023-05-29T07:56:33;102748.06;;;19.72;54.34
71791;BME280;59638;52.126;5.434;2023-05-29T07:59:02;102748.59;;;19.20;54.90
71791;BME280;59638;52.126;5.434;2023-05-29T08:01:30;102743.81;;;19.14;55.68
71791;BME280;59638;52.126;5.434;2023-05-29T08:03:56;102759.84;;;19.24;54.30
71791;BME280;59638;52.126;5.434;2023-05-29T08:06:23;102747.81;;;19.65;54.09
71791;BME280;59638;52.126;5.434;2023-05-29T08:08:49;102752.25;;;19.47;53.10
71791;BME280;59638;52.126;5.434;2023-05-29T08:11:18;102744.53;;;19.44;52.49
71791;BME280;59638;52.126;5.434;2023-05-29T08:13:45;102753.34;;;19.26;51.39
71791;BME280;59638;52.126;5.434;2023-05-29T08:16:12;102746.69;;;19.03;52.03
71791;BME280;59638;52.126;5.434;2023-05-29T08:18:40;102751.47;;;19.09;53.11
71791;BME280;59638;52.126;5.434;2023-05-29T08:21:07;102754.91;;;18.92;53.48
71791;BME280;59638;52.126;5.434;2023-05-29T08:23:33;102759.50;;;19.37;51.18
71791;BME280;59638;52.126;5.434;2023-05-29T08:26:01;102751.66;;;19.53;51.77
71791;BME280;59638;52.126;5.434;2023-05-29T08:28:29;102754.16;;;19.37;51.40
71791;BME280;59638;52.126;5.434;2023-05-29T08:30:56;102756.41;;;19.69;50.13
71791;BME280;59638;52.126;5.434;2023-05-29T08:33:22;102754.66;;;19.77;51.10
71791;BME280;59638;52.126;5.434;2023-05-29T08:35:48;102745.44;;;19.62;50.20
71791;BME280;59638;52.126;5.434;2023-05-29T08:38:15;102746.31;;;19.98;48.57
71791;BME280;59638;52.126;5.434;2023-05-29T08:40:41;102745.25;;;20.09;48.16
71791;BME280;59638;52.126;5.434;2023-05-29T08:43:23;102755.97;;;20.09;50.45
71791;BME280;59638;52.126;5.434;2023-05-29T08:45:54;102750.00;;;20.15;48.07
71791;BME280;59638;52.126;5.434;2023-05-29T08:48:24;102759.41;;;19.83;50.88
71791;BME280;59638;52.126;5.434;2023-05-29T08:50:53;102758.31;;;19.49;50.03
71791;BME280;59638;52.126;5.434;2023-05-29T08:53:21;102754.41;;;19.43;50.42
71791;BME280;59638;52.126;5.434;2023-05-29T08:55:49;102756.41;;;19.41;52.26
71791;BME280;59638;52.126;5.434;2023-05-29T08:58:20;102751.13;;;19.77;49.05
71791;BME280;59638;52.126;5.434;2023-05-29T09:00:50;102755.03;;;19.82;47.66
71791;BME280;59638;52.126;5.434;2023-05-29T09:03:20;102760.53;;;19.99;47.88
71791;BME280;59638;52.126;5.434;2023-05-29T09:05:48;102761.94;;;20.03;50.70
71791;BME280;59638;52.126;5.434;2023-05-29T09:08:15;102763.69;;;20.48;47.67
71791;BME280;59638;52.126;5.434;2023-05-29T09:10:43;102768.28;;;20.55;46.13
71791;BME280;59638;52.126;5.434;2023-05-29T09:13:13;102764.22;;;20.77;46.66
71791;BME280;59638;52.126;5.434;2023-05-29T09:15:41;102762.69;;;21.01;45.03
71791;BME280;59638;52.126;5.434;2023-05-29T09:18:10;102769.91;;;21.00;46.16
71791;BME280;59638;52.126;5.434;2023-05-29T09:20:37;102767.88;;;20.94;46.85
71791;BME280;59638;52.126;5.434;2023-05-29T09:23:05;102762.78;;;21.17;45.96
71791;BME280;59638;52.126;5.434;2023-05-29T09:25:34;102765.78;;;21.14;45.16
71791;BME280;59638;52.126;5.434;2023-05-29T09:28:03;102767.38;;;21.75;42.90
71791;BME280;59638;52.126;5.434;2023-05-29T09:30:45;102764.50;;;21.77;44.13
71791;BME280;59638;52.126;5.434;2023-05-29T09:33:16;102758.28;;;21.60;44.30
71791;BME280;59638;52.126;5.434;2023-05-29T09:35:47;102750.78;;;21.29;46.30
71791;BME280;59638;52.126;5.434;2023-05-29T09:38:18;102760.50;;;20.70;45.64
71791;BME280;59638;52.126;5.434;2023-05-29T09:40:48;102763.84;;;20.72;45.98
71791;BME280;59638;52.126;5.434;2023-05-29T09:43:16;102761.69;;;21.02;45.96
71791;BME280;59638;52.126;5.434;2023-05-29T09:45:45;102755.34;;;21.45;43.31
71791;BME280;59638;52.126;5.434;2023-05-29T09:48:17;102752.75;;;21.27;44.27
71791;BME280;59638;52.126;5.434;2023-05-29T09:50:45;102759.41;;;21.15;46.30
71791;BME280;59638;52.126;5.434;2023-05-29T09:53:21;102758.44;;;20.90;44.87
71791;BME280;59638;52.126;5.434;2023-05-29T09:55:51;102757.19;;;21.36;44.47
71791;BME280;59638;52.126;5.434;2023-05-29T09:58:20;102746.88;;;21.82;44.30
71791;BME280;59638;52.126;5.434;2023-05-29T10:00:47;102752.97;;;22.58;41.77
71791;BME280;59638;52.126;5.434;2023-05-29T10:03:15;102742.66;;;22.94;43.11
71791;BME280;59638;52.126;5.434;2023-05-29T10:05:47;102737.16;;;23.57;40.55
71791;BME280;59638;52.126;5.434;2023-05-29T10:08:15;102746.31;;;23.09;41.47
71791;BME280;59638;52.126;5.434;2023-05-29T10:10:44;102750.78;;;22.45;42.54
71791;BME280;59638;52.126;5.434;2023-05-29T10:13:14;102749.03;;;21.70;42.06
71791;BME280;59638;52.126;5.434;2023-05-29T10:15:45;102747.19;;;21.63;44.57
71791;BME280;59638;52.126;5.434;2023-05-29T10:18:29;102739.97;;;21.71;43.80
71791;BME280;59638;52.126;5.434;2023-05-29T10:20:59;102744.59;;;22.12;43.73
71791;BME280;59638;52.126;5.434;2023-05-29T10:23:28;102738.53;;;22.10;41.93
71791;BME280;59638;52.126;5.434;2023-05-29T10:26:08;102745.75;;;21.93;44.28
71791;BME280;59638;52.126;5.434;2023-05-29T10:28:39;102743.53;;;21.80;44.07
71791;BME280;59638;52.126;5.434;2023-05-29T10:31:17;102740.22;;;22.43;44.72
71791;BME280;59638;52.126;5.434;2023-05-29T10:34:07;102736.84;;;22.25;43.09
71791;BME280;59638;52.126;5.434;2023-05-29T10:36:40;102741.16;;;21.69;41.74
71791;BME280;59638;52.126;5.434;2023-05-29T10:39:09;102734.31;;;21.32;43.49
71791;BME280;59638;52.126;5.434;2023-05-29T10:41:35;102730.03;;;21.64;42.84
71791;BME280;59638;52.126;5.434;2023-05-29T10:49:29;102730.09;;;21.88;42.36
71791;BME280;59638;52.126;5.434;2023-05-29T10:51:57;102738.47;;;21.85;42.24
71791;BME280;59638;52.126;5.434;2023-05-29T10:54:26;102730.97;;;22.30;42.47
71791;BME280;59638;52.126;5.434;2023-05-29T10:57:01;102722.03;;;22.53;42.51
71791;BME280;59638;52.126;5.434;2023-05-29T10:59:35;102714.50;;;23.13;41.93
71791;BME280;59638;52.126;5.434;2023-05-29T11:02:03;102715.88;;;22.84;40.98
71791;BME280;59638;52.126;5.434;2023-05-29T11:04:30;102722.31;;;22.91;41.52
71791;BME280;59638;52.126;5.434;2023-05-29T11:06:59;102708.31;;;23.35;41.58
71791;BME280;59638;52.126;5.434;2023-05-29T11:15:05;102725.34;;;23.67;37.91
71791;BME280;59638;52.126;5.434;2023-05-29T11:17:43;102723.69;;;23.57;38.48
71791;BME280;59638;52.126;5.434;2023-05-29T11:20:16;102722.16;;;23.86;38.44
71791;BME280;59638;52.126;5.434;2023-05-29T11:25:15;102717.34;;;23.96;36.73
71791;BME280;59638;52.126;5.434;2023-05-29T11:27:44;102720.25;;;23.72;37.12
71791;BME280;59638;52.126;5.434;2023-05-29T11:30:12;102705.38;;;23.76;37.50
71791;BME280;59638;52.126;5.434;2023-05-29T11:32:39;102709.81;;;23.06;38.15
71791;BME280;59638;52.126;5.434;2023-05-29T11:35:08;102720.28;;;22.77;38.21
71791;BME280;59638;52.126;5.434;2023-05-29T11:37:36;102718.47;;;23.25;37.54
71791;BME280;59638;52.126;5.434;2023-05-29T11:40:05;102709.28;;;23.42;36.86
71791;BME280;59638;52.126;5.434;2023-05-29T11:42:35;102713.28;;;23.15;37.84
71791;BME280;59638;52.126;5.434;2023-05-29T11:45:19;102717.75;;;22.84;41.32
71791;BME280;59638;52.126;5.434;2023-05-29T11:47:54;102718.81;;;22.66;40.38
71791;BME280;59638;52.126;5.434;2023-05-29T11:50:26;102726.03;;;21.60;40.42
71791;BME280;59638;52.126;5.434;2023-05-29T11:52:55;102720.44;;;21.11;42.02
71791;BME280;59638;52.126;5.434;2023-05-29T11:55:22;102716.53;;;21.31;42.92
71791;BME280;59638;52.126;5.434;2023-05-29T11:57:50;102721.97;;;21.64;42.00
71791;BME280;59638;52.126;5.434;2023-05-29T12:00:18;102720.00;;;21.90;41.47
71791;BME280;59638;52.126;5.434;2023-05-29T12:02:45;102715.16;;;22.18;41.64
71791;BME280;59638;52.126;5.434;2023-05-29T12:05:17;102719.50;;;21.95;42.60
71791;BME280;59638;52.126;5.434;2023-05-29T12:07:48;102712.16;;;21.38;41.98
71791;BME280;59638;52.126;5.434;2023-05-29T12:10:17;102709.94;;;20.91;44.80
71791;BME280;59638;52.126;5.434;2023-05-29T12:13:01;102711.75;;;21.25;43.12
71791;BME280;59638;52.126;5.434;2023-05-29T12:15:28;102718.91;;;21.00;43.26
71791;BME280;59638;52.126;5.434;2023-05-29T12:17:56;102716.97;;;20.84;44.18
71791;BME280;59638;52.126;5.434;2023-05-29T12:20:24;102716.88;;;21.02;42.46
71791;BME280;59638;52.126;5.434;2023-05-29T12:22:59;102714.06;;;21.46;42.42
71791;BME280;59638;52.126;5.434;2023-05-29T12:25:27;102714.25;;;21.53;42.02
71791;BME280;59638;52.126;5.434;2023-05-29T12:27:57;102715.56;;;21.40;42.79
71791;BME280;59638;52.126;5.434;2023-05-29T12:30:24;102711.50;;;21.28;42.88
71791;BME280;59638;52.126;5.434;2023-05-29T12:32:58;102720.28;;;20.78;41.69
71791;BME280;59638;52.126;5.434;2023-05-29T12:35:28;102715.91;;;20.33;42.37
71791;BME280;59638;52.126;5.434;2023-05-29T12:37:59;102708.75;;;20.16;45.40
71791;BME280;59638;52.126;5.434;2023-05-29T12:40:27;102707.00;;;21.03;41.65
71791;BME280;59638;52.126;5.434;2023-05-29T12:42:59;102704.56;;;21.92;41.11
71791;BME280;59638;52.126;5.434;2023-05-29T12:45:27;102709.47;;;21.30;43.71
71791;BME280;59638;52.126;5.434;2023-05-29T12:47:56;102711.72;;;21.09;42.58
71791;BME280;59638;52.126;5.434;2023-05-29T12:50:25;102707.97;;;20.94;42.23
71791;BME280;59638;52.126;5.434;2023-05-29T12:55:28;102710.09;;;19.94;44.27
71791;BME280;59638;52.126;5.434;2023-05-29T12:57:55;102705.31;;;20.06;42.18
71791;BME280;59638;52.126;5.434;2023-05-29T13:00:22;102706.63;;;20.02;42.58
71791;BME280;59638;52.126;5.434;2023-05-29T13:02:50;102713.97;;;19.64;43.62
71791;BME280;59638;52.126;5.434;2023-05-29T13:05:16;102711.59;;;19.79;44.11
71791;BME280;59638;52.126;5.434;2023-05-29T13:07:46;102721.34;;;19.62;42.96
71791;BME280;59638;52.126;5.434;2023-05-29T13:10:14;102715.88;;;19.26;43.91
71791;BME280;59638;52.126;5.434;2023-05-29T13:12:41;102706.63;;;19.39;43.51
71791;BME280;59638;52.126;5.434;2023-05-29T13:15:10;102709.63;;;19.36;46.38
71791;BME280;59638;52.126;5.434;2023-05-29T13:17:38;102709.41;;;19.47;44.98
71791;BME280;59638;52.126;5.434;2023-05-29T13:20:12;102709.44;;;20.00;44.69
71791;BME280;59638;52.126;5.434;2023-05-29T13:22:39;102700.09;;;20.22;43.97
71791;BME280;59638;52.126;5.434;2023-05-29T13:25:08;102702.72;;;19.96;44.23